sensor_id;sensor_type;location;lat;lon;timestamp;P1;durP1;ratioP1;P2;durP2;ratioP2
44046;SDS011;29713;-33.888;151.150;2023-05-07T00:00:04;2.33;;;0.60;;
44046;SDS011;29713;-33.888;151.150;2023-05-07T00:02:36;0.73;;;0.43;;
44046;SDS011;29713;-33.888;151.150;2023-05-07T00:05:04;0.47;;;0.30;;
44046;SDS011;29713;-33.888;151.150;2023-05-07T00:07:32;1.00;;;0.53;;
44046;SDS011;29713;-33.888;151.150;2023-05-07T00:09:59;3.13;;;0.50;;
44046;SDS011;29713;-33.888;151.150;2023-05-07T00:12:26;1.20;;;0.80;;
44046;SDS011;29713;-33.888;151.150;2023-05-07T00:14:57;3.67;;;0.87;;
44046;SDS011;29713;-33.888;151.150;2023-05-07T00:17:24;1.17;;;0.60;;
44046;SDS011;29713;-33.888;151.150;2023-05-07T00:19:51;1.80;;;0.70;;
44046;SDS011;29713;-33.888;151.150;2023-05-07T00:22:19;1.93;;;0.67;;
44046;SDS011;29713;-33.888;151.150;2023-05-07T00:24:47;1.13;;;0.70;;
44046;SDS011;29713;-33.888;151.150;2023-05-07T00:27:14;1.63;;;0.70;;
44046;SDS011;29713;-33.888;151.150;2023-05-07T00:29:41;4.93;;;0.80;;
44046;SDS011;29713;-33.888;151.150;2023-05-07T00:32:09;2.87;;;0.87;;
44046;SDS011;29713;-33.888;151.150;2023-05-07T00:34:36;1.07;;;0.70;;
44046;SDS011;29713;-33.888;151.150;2023-05-07T00:37:05;2.07;;;0.77;;
44046;SDS011;29713;-33.888;151.150;2023-05-07T00:39:35;1.93;;;0.80;;
44046;SDS011;29713;-33.888;151.150;2023-05-07T00:42:03;1.17;;;0.47;;
44046;SDS011;29713;-33.888;151.150;2023-05-07T00:44:30;1.90;;;0.83;;
44046;SDS011;29713;-33.888;151.150;2023-05-07T00:46:58;1.63;;;0.60;;
44046;SDS011;29713;-33.888;151.150;2023-05-07T00:49:33;1.40;;;1.07;;
44046;SDS011;29713;-33.888;151.150;2023-05-07T00:52:07;1.60;;;0.73;;
44046;SDS011;29713;-33.888;151.150;2023-05-07T00:54:37;1.67;;;0.80;;
44046;SDS011;29713;-33.888;151.150;2023-05-07T00:57:06;2.13;;;1.10;;
44046;SDS011;29713;-33.888;151.150;2023-05-07T00:59:35;2.10;;;0.93;;
44046;SDS011;29713;-33.888;151.150;2023-05-07T01:02:03;3.60;;;1.60;;
44046;SDS011;29713;-33.888;151.150;2023-05-07T01:04:30;4.90;;;1.90;;
44046;SDS011;29713;-33.888;151.150;2023-05-07T01:06:58;5.53;;;3.23;;
44046;SDS011;29713;-33.888;151.150;2023-05-07T01:09:28;6.23;;;3.00;;
44046;SDS011;29713;-33.888;151.150;2023-05-07T01:11:56;2.03;;;1.20;;
44046;SDS011;29713;-33.888;151.150;2023-05-07T01:14:25;1.80;;;1.10;;
44046;SDS011;29713;-33.888;151.150;2023-05-07T01:16:56;1.83;;;1.00;;
44046;SDS011;29713;-33.888;151.150;2023-05-07T01:19:24;1.43;;;1.00;;
44046;SDS011;29713;-33.888;151.150;2023-05-07T01:21:52;1.40;;;0.90;;
44046;SDS011;29713;-33.888;151.150;2023-05-07T01:24:29;1.67;;;0.77;;
44046;SDS011;29713;-33.888;151.150;2023-05-07T01:26:58;1.50;;;0.80;;
44046;SDS011;29713;-33.888;151.150;2023-05-07T01:29:27;2.47;;;1.20;;
44046;SDS011;29713;-33.888;151.150;2023-05-07T01:32:01;1.77;;;1.00;;
44046;SDS011;29713;-33.888;151.150;2023-05-07T01:34:31;3.17;;;1.23;;
44046;SDS011;29713;-33.888;151.150;2023-05-07T01:37:00;1.73;;;1.10;;
44046;SDS011;29713;-33.888;151.150;2023-05-07T01:39:28;1.87;;;1.17;;
44046;SDS011;29713;-33.888;151.150;2023-05-07T01:41:56;1.97;;;1.00;;
44046;SDS011;29713;-33.888;151.150;2023-05-07T01:44:25;1.60;;;1.00;;
44046;SDS011;29713;-33.888;151.150;2023-05-07T01:46:53;1.10;;;0.80;;
44046;SDS011;29713;-33.888;151.150;2023-05-07T01:49:21;3.47;;;0.90;;
44046;SDS011;29713;-33.888;151.150;2023-05-07T01:51:49;2.53;;;1.10;;
44046;SDS011;29713;-33.888;151.150;2023-05-07T01:54:17;2.63;;;1.03;;
44046;SDS011;29713;-33.888;151.150;2023-05-07T01:56:44;2.20;;;1.07;;
44046;SDS011;29713;-33.888;151.150;2023-05-07T01:59:13;1.13;;;0.70;;
44046;SDS011;29713;-33.888;151.150;2023-05-07T02:01:40;0.60;;;0.60;;
44046;SDS011;29713;-33.888;151.150;2023-05-07T02:04:08;1.83;;;0.60;;
44046;SDS011;29713;-33.888;151.150;2023-05-07T02:06:35;2.28;;;0.50;;
44046;SDS011;29713;-33.888;151.150;2023-05-07T02:09:02;3.00;;;0.80;;
44046;SDS011;29713;-33.888;151.150;2023-05-07T02:11:30;0.88;;;0.80;;
44046;SDS011;29713;-33.888;151.150;2023-05-07T02:13:57;1.83;;;0.70;;
44046;SDS011;29713;-33.888;151.150;2023-05-07T02:16:24;1.63;;;0.52;;
44046;SDS011;29713;-33.888;151.150;2023-05-07T02:18:52;1.00;;;0.60;;
44046;SDS011;29713;-33.888;151.150;2023-05-07T02:21:19;1.45;;;0.60;;
44046;SDS011;29713;-33.888;151.150;2023-05-07T02:23:46;1.67;;;0.50;;
44046;SDS011;29713;-33.888;151.150;2023-05-07T02:26:14;1.10;;;0.50;;
44046;SDS011;29713;-33.888;151.150;2023-05-07T02:28:41;0.70;;;0.57;;
44046;SDS011;29713;-33.888;151.150;2023-05-07T02:31:08;1.52;;;0.60;;
44046;SDS011;29713;-33.888;151.150;2023-05-07T02:33:36;1.00;;;0.30;;
44046;SDS011;29713;-33.888;151.150;2023-05-07T02:36:09;1.38;;;0.50;;
44046;SDS011;29713;-33.888;151.150;2023-05-07T02:38:38;0.65;;;0.50;;
44046;SDS011;29713;-33.888;151.150;2023-05-07T02:41:05;1.83;;;0.68;;
44046;SDS011;29713;-33.888;151.150;2023-05-07T02:43:32;1.20;;;0.25;;
44046;SDS011;29713;-33.888;151.150;2023-05-07T02:46:00;1.02;;;0.63;;
44046;SDS011;29713;-33.888;151.150;2023-05-07T02:48:29;1.35;;;0.50;;
44046;SDS011;29713;-33.888;151.150;2023-05-07T02:50:57;0.55;;;0.52;;
44046;SDS011;29713;-33.888;151.150;2023-05-07T02:53:25;0.98;;;0.50;;
44046;SDS011;29713;-33.888;151.150;2023-05-07T02:55:53;0.43;;;0.30;;
44046;SDS011;29713;-33.888;151.150;2023-05-07T02:58:21;1.17;;;0.40;;
44046;SDS011;29713;-33.888;151.150;2023-05-07T03:00:48;1.63;;;0.38;;
44046;SDS011;29713;-33.888;151.150;2023-05-07T03:03:16;1.50;;;0.73;;
44046;SDS011;29713;-33.888;151.150;2023-05-07T03:05:43;1.77;;;0.50;;
44046;SDS011;29713;-33.888;151.150;2023-05-07T03:08:14;1.02;;;0.60;;
44046;SDS011;29713;-33.888;151.150;2023-05-07T03:10:41;2.03;;;0.70;;
44046;SDS011;29713;-33.888;151.150;2023-05-07T03:13:08;1.05;;;0.70;;
44046;SDS011;29713;-33.888;151.150;2023-05-07T03:15:36;0.90;;;0.60;;
44046;SDS011;29713;-33.888;151.150;2023-05-07T03:18:03;1.27;;;0.60;;
44046;SDS011;29713;-33.888;151.150;2023-05-07T03:20:31;2.03;;;0.60;;
44046;SDS011;29713;-33.888;151.150;2023-05-07T03:22:58;0.83;;;0.67;;
44046;SDS011;29713;-33.888;151.150;2023-05-07T03:25:25;2.27;;;0.57;;
44046;SDS011;29713;-33.888;151.150;2023-05-07T03:27:53;0.50;;;0.40;;
44046;SDS011;29713;-33.888;151.150;2023-05-07T03:30:20;1.13;;;0.50;;
44046;SDS011;29713;-33.888;151.150;2023-05-07T03:32:48;0.83;;;0.50;;
44046;SDS011;29713;-33.888;151.150;2023-05-07T03:35:15;1.45;;;0.77;;
44046;SDS011;29713;-33.888;151.150;2023-05-07T03:37:43;2.78;;;0.80;;
44046;SDS011;29713;-33.888;151.150;2023-05-07T03:40:10;0.90;;;0.50;;
44046;SDS011;29713;-33.888;151.150;2023-05-07T03:42:38;0.30;;;0.22;;
44046;SDS011;29713;-33.888;151.150;2023-05-07T03:45:07;1.52;;;0.50;;
44046;SDS011;29713;-33.888;151.150;2023-05-07T03:47:35;2.25;;;0.52;;
44046;SDS011;29713;-33.888;151.150;2023-05-07T03:50:02;0.93;;;0.40;;
44046;SDS011;29713;-33.888;151.150;2023-05-07T03:52:30;0.50;;;0.40;;
44046;SDS011;29713;-33.888;151.150;2023-05-07T03:54:57;0.40;;;0.40;;
44046;SDS011;29713;-33.888;151.150;2023-05-07T03:57:25;0.30;;;0.30;;
44046;SDS011;29713;-33.888;151.150;2023-05-07T03:59:52;0.75;;;0.50;;
44046;SDS011;29713;-33.888;151.150;2023-05-07T04:02:19;1.15;;;0.40;;
44046;SDS011;29713;-33.888;151.150;2023-05-07T04:04:48;0.82;;;0.50;;
44046;SDS011;29713;-33.888;151.150;2023-05-07T04:07:15;1.05;;;0.60;;
44046;SDS011;29713;-33.888;151.150;2023-05-07T04:09:43;0.40;;;0.40;;
44046;SDS011;29713;-33.888;151.150;2023-05-07T04:12:10;0.55;;;0.50;;
44046;SDS011;29713;-33.888;151.150;2023-05-07T04:14:37;0.63;;;0.60;;
44046;SDS011;29713;-33.888;151.150;2023-05-07T04:17:05;2.47;;;0.80;;
44046;SDS011;29713;-33.888;151.150;2023-05-07T04:19:35;0.95;;;0.50;;
44046;SDS011;29713;-33.888;151.150;2023-05-07T04:22:02;1.05;;;0.65;;
44046;SDS011;29713;-33.888;151.150;2023-05-07T04:24:32;1.20;;;0.35;;
44046;SDS011;29713;-33.888;151.150;2023-05-07T04:26:59;0.40;;;0.10;;
44046;SDS011;29713;-33.888;151.150;2023-05-07T04:29:27;0.88;;;0.40;;
44046;SDS011;29713;-33.888;151.150;2023-05-07T04:31:54;2.10;;;0.70;;
44046;SDS011;29713;-33.888;151.150;2023-05-07T04:34:22;1.15;;;0.60;;
44046;SDS011;29713;-33.888;151.150;2023-05-07T04:36:49;1.17;;;0.63;;
44046;SDS011;29713;-33.888;151.150;2023-05-07T04:39:16;1.23;;;1.00;;
44046;SDS011;29713;-33.888;151.150;2023-05-07T04:41:44;1.88;;;1.02;;
44046;SDS011;29713;-33.888;151.150;2023-05-07T04:44:11;3.42;;;0.98;;
44046;SDS011;29713;-33.888;151.150;2023-05-07T04:46:38;2.47;;;0.47;;
44046;SDS011;29713;-33.888;151.150;2023-05-07T04:49:06;1.33;;;0.68;;
44046;SDS011;29713;-33.888;151.150;2023-05-07T04:51:33;1.98;;;0.60;;
44046;SDS011;29713;-33.888;151.150;2023-05-07T04:54:00;1.25;;;0.50;;
44046;SDS011;29713;-33.888;151.150;2023-05-07T04:56:28;1.13;;;0.43;;
44046;SDS011;29713;-33.888;151.150;2023-05-07T04:58:55;2.92;;;0.93;;
44046;SDS011;29713;-33.888;151.150;2023-05-07T05:01:23;0.75;;;0.38;;
44046;SDS011;29713;-33.888;151.150;2023-05-07T05:03:50;2.40;;;1.10;;
44046;SDS011;29713;-33.888;151.150;2023-05-07T05:06:18;4.03;;;0.40;;
44046;SDS011;29713;-33.888;151.150;2023-05-07T05:08:45;0.45;;;0.30;;
44046;SDS011;29713;-33.888;151.150;2023-05-07T05:11:12;0.93;;;0.50;;
44046;SDS011;29713;-33.888;151.150;2023-05-07T05:13:40;0.82;;;0.40;;
44046;SDS011;29713;-33.888;151.150;2023-05-07T05:16:08;0.45;;;0.32;;
44046;SDS011;29713;-33.888;151.150;2023-05-07T05:18:35;0.60;;;0.30;;
44046;SDS011;29713;-33.888;151.150;2023-05-07T05:21:03;0.35;;;0.30;;
44046;SDS011;29713;-33.888;151.150;2023-05-07T05:23:30;1.48;;;0.45;;
44046;SDS011;29713;-33.888;151.150;2023-05-07T05:25:58;1.13;;;0.32;;
44046;SDS011;29713;-33.888;151.150;2023-05-07T05:28:25;0.47;;;0.40;;
44046;SDS011;29713;-33.888;151.150;2023-05-07T05:30:53;1.17;;;0.30;;
44046;SDS011;29713;-33.888;151.150;2023-05-07T05:33:20;0.70;;;0.40;;
44046;SDS011;29713;-33.888;151.150;2023-05-07T05:35:49;0.40;;;0.30;;
44046;SDS011;29713;-33.888;151.150;2023-05-07T05:38:19;1.00;;;0.23;;
44046;SDS011;29713;-33.888;151.150;2023-05-07T05:40:46;0.73;;;0.30;;
44046;SDS011;29713;-33.888;151.150;2023-05-07T05:43:14;0.80;;;0.30;;
44046;SDS011;29713;-33.888;151.150;2023-05-07T05:45:41;1.23;;;0.40;;
44046;SDS011;29713;-33.888;151.150;2023-05-07T05:48:08;0.43;;;0.30;;
44046;SDS011;29713;-33.888;151.150;2023-05-07T05:50:36;0.60;;;0.40;;
44046;SDS011;29713;-33.888;151.150;2023-05-07T05:53:03;0.93;;;0.30;;
44046;SDS011;29713;-33.888;151.150;2023-05-07T05:55:31;1.50;;;0.50;;
44046;SDS011;29713;-33.888;151.150;2023-05-07T05:58:01;1.60;;;0.33;;
44046;SDS011;29713;-33.888;151.150;2023-05-07T06:00:29;0.50;;;0.43;;
44046;SDS011;29713;-33.888;151.150;2023-05-07T06:02:56;0.40;;;0.40;;
44046;SDS011;29713;-33.888;151.150;2023-05-07T06:05:23;1.80;;;0.53;;
44046;SDS011;29713;-33.888;151.150;2023-05-07T06:07:51;0.57;;;0.53;;
44046;SDS011;29713;-33.888;151.150;2023-05-07T06:10:18;0.47;;;0.40;;
44046;SDS011;29713;-33.888;151.150;2023-05-07T06:12:45;1.43;;;0.70;;
44046;SDS011;29713;-33.888;151.150;2023-05-07T06:15:13;2.70;;;0.70;;
44046;SDS011;29713;-33.888;151.150;2023-05-07T06:17:40;1.30;;;0.70;;
44046;SDS011;29713;-33.888;151.150;2023-05-07T06:20:07;0.60;;;0.60;;
44046;SDS011;29713;-33.888;151.150;2023-05-07T06:22:35;0.70;;;0.70;;
44046;SDS011;29713;-33.888;151.150;2023-05-07T06:25:02;0.63;;;0.57;;
44046;SDS011;29713;-33.888;151.150;2023-05-07T06:27:30;0.80;;;0.57;;
44046;SDS011;29713;-33.888;151.150;2023-05-07T06:29:57;1.10;;;0.80;;
44046;SDS011;29713;-33.888;151.150;2023-05-07T06:32:25;1.10;;;0.80;;
44046;SDS011;29713;-33.888;151.150;2023-05-07T06:34:52;1.43;;;0.70;;
44046;SDS011;29713;-33.888;151.150;2023-05-07T06:37:19;1.07;;;0.57;;
44046;SDS011;29713;-33.888;151.150;2023-05-07T06:39:47;2.30;;;0.50;;
44046;SDS011;29713;-33.888;151.150;2023-05-07T06:42:14;1.37;;;0.50;;
44046;SDS011;29713;-33.888;151.150;2023-05-07T06:44:41;0.50;;;0.50;;
44046;SDS011;29713;-33.888;151.150;2023-05-07T06:47:09;0.77;;;0.50;;
44046;SDS011;29713;-33.888;151.150;2023-05-07T06:49:36;0.53;;;0.50;;
44046;SDS011;29713;-33.888;151.150;2023-05-07T06:52:03;0.50;;;0.50;;
44046;SDS011;29713;-33.888;151.150;2023-05-07T06:54:31;1.63;;;0.50;;
44046;SDS011;29713;-33.888;151.150;2023-05-07T06:56:58;0.43;;;0.43;;
44046;SDS011;29713;-33.888;151.150;2023-05-07T06:59:26;0.57;;;0.40;;
44046;SDS011;29713;-33.888;151.150;2023-05-07T07:01:53;0.47;;;0.47;;
44046;SDS011;29713;-33.888;151.150;2023-05-07T07:04:20;0.30;;;0.30;;
44046;SDS011;29713;-33.888;151.150;2023-05-07T07:06:49;1.00;;;0.40;;
44046;SDS011;29713;-33.888;151.150;2023-05-07T07:09:20;0.60;;;0.50;;
44046;SDS011;29713;-33.888;151.150;2023-05-07T07:11:47;0.43;;;0.43;;
44046;SDS011;29713;-33.888;151.150;2023-05-07T07:14:14;0.53;;;0.53;;
44046;SDS011;29713;-33.888;151.150;2023-05-07T07:16:42;0.63;;;0.63;;
44046;SDS011;29713;-33.888;151.150;2023-05-07T07:19:09;0.53;;;0.40;;
44046;SDS011;29713;-33.888;151.150;2023-05-07T07:21:36;0.43;;;0.40;;
44046;SDS011;29713;-33.888;151.150;2023-05-07T07:24:04;0.50;;;0.50;;
44046;SDS011;29713;-33.888;151.150;2023-05-07T07:26:31;0.53;;;0.50;;
44046;SDS011;29713;-33.888;151.150;2023-05-07T07:28:58;0.30;;;0.30;;
44046;SDS011;29713;-33.888;151.150;2023-05-07T07:31:26;0.70;;;0.60;;
44046;SDS011;29713;-33.888;151.150;2023-05-07T07:33:53;0.50;;;0.50;;
44046;SDS011;29713;-33.888;151.150;2023-05-07T07:36:20;0.60;;;0.60;;
44046;SDS011;29713;-33.888;151.150;2023-05-07T07:38:48;0.50;;;0.50;;
44046;SDS011;29713;-33.888;151.150;2023-05-07T07:41:15;0.83;;;0.70;;
44046;SDS011;29713;-33.888;151.150;2023-05-07T07:43:42;0.60;;;0.60;;
44046;SDS011;29713;-33.888;151.150;2023-05-07T07:46:12;0.97;;;0.60;;
44046;SDS011;29713;-33.888;151.150;2023-05-07T07:48:39;1.70;;;0.47;;
44046;SDS011;29713;-33.888;151.150;2023-05-07T07:51:06;0.60;;;0.60;;
44046;SDS011;29713;-33.888;151.150;2023-05-07T07:53:34;0.63;;;0.60;;
44046;SDS011;29713;-33.888;151.150;2023-05-07T07:56:01;0.80;;;0.57;;
44046;SDS011;29713;-33.888;151.150;2023-05-07T07:58:29;0.53;;;0.50;;
44046;SDS011;29713;-33.888;151.150;2023-05-07T08:00:56;0.40;;;0.40;;
44046;SDS011;29713;-33.888;151.150;2023-05-07T08:03:23;0.53;;;0.50;;
44046;SDS011;29713;-33.888;151.150;2023-05-07T08:05:51;0.63;;;0.60;;
44046;SDS011;29713;-33.888;151.150;2023-05-07T08:08:18;0.80;;;0.57;;
44046;SDS011;29713;-33.888;151.150;2023-05-07T08:10:45;1.67;;;0.50;;
44046;SDS011;29713;-33.888;151.150;2023-05-07T08:13:15;0.73;;;0.43;;
44046;SDS011;29713;-33.888;151.150;2023-05-07T08:15:44;1.20;;;0.70;;
44046;SDS011;29713;-33.888;151.150;2023-05-07T08:18:11;0.70;;;0.60;;
44046;SDS011;29713;-33.888;151.150;2023-05-07T08:20:38;0.40;;;0.40;;
44046;SDS011;29713;-33.888;151.150;2023-05-07T08:23:06;0.47;;;0.40;;
44046;SDS011;29713;-33.888;151.150;2023-05-07T08:25:34;0.83;;;0.50;;
44046;SDS011;29713;-33.888;151.150;2023-05-07T08:28:01;0.90;;;0.60;;
44046;SDS011;29713;-33.888;151.150;2023-05-07T08:30:29;0.47;;;0.40;;
44046;SDS011;29713;-33.888;151.150;2023-05-07T08:32:56;0.50;;;0.40;;
44046;SDS011;29713;-33.888;151.150;2023-05-07T08:35:23;0.87;;;0.70;;
44046;SDS011;29713;-33.888;151.150;2023-05-07T08:37:52;1.07;;;0.40;;
44046;SDS011;29713;-33.888;151.150;2023-05-07T08:40:20;0.50;;;0.50;;
44046;SDS011;29713;-33.888;151.150;2023-05-07T08:42:51;0.70;;;0.70;;
44046;SDS011;29713;-33.888;151.150;2023-05-07T08:45:20;1.97;;;1.00;;
44046;SDS011;29713;-33.888;151.150;2023-05-07T08:47:49;1.33;;;0.90;;
44046;SDS011;29713;-33.888;151.150;2023-05-07T08:50:23;1.07;;;0.70;;
44046;SDS011;29713;-33.888;151.150;2023-05-07T08:52:50;1.13;;;0.70;;
44046;SDS011;29713;-33.888;151.150;2023-05-07T08:55:18;1.73;;;1.00;;
44046;SDS011;29713;-33.888;151.150;2023-05-07T08:57:46;1.30;;;0.83;;
44046;SDS011;29713;-33.888;151.150;2023-05-07T09:00:14;1.90;;;1.03;;
44046;SDS011;29713;-33.888;151.150;2023-05-07T09:02:42;1.23;;;0.80;;
44046;SDS011;29713;-33.888;151.150;2023-05-07T09:05:10;1.00;;;0.90;;
44046;SDS011;29713;-33.888;151.150;2023-05-07T09:07:37;1.93;;;1.20;;
44046;SDS011;29713;-33.888;151.150;2023-05-07T09:10:05;1.67;;;0.70;;
44046;SDS011;29713;-33.888;151.150;2023-05-07T09:12:33;1.47;;;0.60;;
44046;SDS011;29713;-33.888;151.150;2023-05-07T09:15:01;1.33;;;0.80;;
44046;SDS011;29713;-33.888;151.150;2023-05-07T09:17:29;1.67;;;0.93;;
44046;SDS011;29713;-33.888;151.150;2023-05-07T09:19:56;1.37;;;0.70;;
44046;SDS011;29713;-33.888;151.150;2023-05-07T09:22:35;0.93;;;0.70;;
44046;SDS011;29713;-33.888;151.150;2023-05-07T09:25:04;1.07;;;0.70;;
44046;SDS011;29713;-33.888;151.150;2023-05-07T09:27:41;2.00;;;0.87;;
44046;SDS011;29713;-33.888;151.150;2023-05-07T09:30:09;1.50;;;0.67;;
44046;SDS011;29713;-33.888;151.150;2023-05-07T09:32:37;3.57;;;1.33;;
44046;SDS011;29713;-33.888;151.150;2023-05-07T09:35:04;0.93;;;0.70;;
44046;SDS011;29713;-33.888;151.150;2023-05-07T09:37:32;0.80;;;0.60;;
44046;SDS011;29713;-33.888;151.150;2023-05-07T09:40:00;1.00;;;0.70;;
44046;SDS011;29713;-33.888;151.150;2023-05-07T09:42:28;0.40;;;0.40;;
44046;SDS011;29713;-33.888;151.150;2023-05-07T09:44:56;0.60;;;0.30;;
44046;SDS011;29713;-33.888;151.150;2023-05-07T09:47:24;0.17;;;0.17;;
44046;SDS011;29713;-33.888;151.150;2023-05-07T09:49:56;0.20;;;0.10;;
44046;SDS011;29713;-33.888;151.150;2023-05-07T09:52:25;0.30;;;0.20;;
44046;SDS011;29713;-33.888;151.150;2023-05-07T09:54:58;0.17;;;0.17;;
44046;SDS011;29713;-33.888;151.150;2023-05-07T09:57:26;0.30;;;0.20;;
44046;SDS011;29713;-33.888;151.150;2023-05-07T09:59:55;0.30;;;0.30;;
44046;SDS011;29713;-33.888;151.150;2023-05-07T10:02:25;0.10;;;0.10;;
44046;SDS011;29713;-33.888;151.150;2023-05-07T10:04:55;0.20;;;0.20;;
44046;SDS011;29713;-33.888;151.150;2023-05-07T10:07:26;0.03;;;0.03;;
44046;SDS011;29713;-33.888;151.150;2023-05-07T10:09:53;0.10;;;0.10;;
44046;SDS011;29713;-33.888;151.150;2023-05-07T10:12:21;0.23;;;0.20;;
44046;SDS011;29713;-33.888;151.150;2023-05-07T10:14:50;0.27;;;0.23;;
44046;SDS011;29713;-33.888;151.150;2023-05-07T10:17:20;0.20;;;0.20;;
44046;SDS011;29713;-33.888;151.150;2023-05-07T10:19:49;0.30;;;0.30;;
44046;SDS011;29713;-33.888;151.150;2023-05-07T10:22:19;0.27;;;0.20;;
44046;SDS011;29713;-33.888;151.150;2023-05-07T10:24:48;0.23;;;0.23;;
44046;SDS011;29713;-33.888;151.150;2023-05-07T10:27:19;0.30;;;0.20;;
44046;SDS011;29713;-33.888;151.150;2023-05-07T10:30:04;0.10;;;0.10;;
44046;SDS011;29713;-33.888;151.150;2023-05-07T10:32:53;1.70;;;0.30;;
44046;SDS011;29713;-33.888;151.150;2023-05-07T10:35:32;1.40;;;0.13;;
44046;SDS011;29713;-33.888;151.150;2023-05-07T10:38:06;2.30;;;0.33;;
44046;SDS011;29713;-33.888;151.150;2023-05-07T10:40:34;0.20;;;0.13;;
44046;SDS011;29713;-33.888;151.150;2023-05-07T10:43:02;0.40;;;0.10;;
44046;SDS011;29713;-33.888;151.150;2023-05-07T10:45:31;1.40;;;0.60;;
44046;SDS011;29713;-33.888;151.150;2023-05-07T10:48:06;0.20;;;0.20;;
44046;SDS011;29713;-33.888;151.150;2023-05-07T10:50:40;0.10;;;0.10;;
44046;SDS011;29713;-33.888;151.150;2023-05-07T10:55:49;0.10;;;0.10;;
44046;SDS011;29713;-33.888;151.150;2023-05-07T10:58:30;0.07;;;0.07;;
44046;SDS011;29713;-33.888;151.150;2023-05-07T11:00:59;1.03;;;0.20;;
44046;SDS011;29713;-33.888;151.150;2023-05-07T11:03:27;0.10;;;0.10;;
44046;SDS011;29713;-33.888;151.150;2023-05-07T11:06:14;0.83;;;0.10;;
44046;SDS011;29713;-33.888;151.150;2023-05-07T11:11:18;0.50;;;0.10;;
44046;SDS011;29713;-33.888;151.150;2023-05-07T11:14:06;0.10;;;0.10;;
44046;SDS011;29713;-33.888;151.150;2023-05-07T11:16:33;0.30;;;0.10;;
44046;SDS011;29713;-33.888;151.150;2023-05-07T11:19:02;0.10;;;0.10;;
44046;SDS011;29713;-33.888;151.150;2023-05-07T11:21:36;0.07;;;0.00;;
44046;SDS011;29713;-33.888;151.150;2023-05-07T11:24:05;0.00;;;0.00;;
44046;SDS011;29713;-33.888;151.150;2023-05-07T11:26:43;0.63;;;0.20;;
44046;SDS011;29713;-33.888;151.150;2023-05-07T11:29:14;0.10;;;0.10;;
44046;SDS011;29713;-33.888;151.150;2023-05-07T11:31:42;0.30;;;0.10;;
44046;SDS011;29713;-33.888;151.150;2023-05-07T11:34:10;0.10;;;0.10;;
44046;SDS011;29713;-33.888;151.150;2023-05-07T11:36:41;1.50;;;0.10;;
44046;SDS011;29713;-33.888;151.150;2023-05-07T11:39:30;0.73;;;0.10;;
44046;SDS011;29713;-33.888;151.150;2023-05-07T11:42:00;0.27;;;0.10;;
44046;SDS011;29713;-33.888;151.150;2023-05-07T11:44:43;0.70;;;0.10;;
44046;SDS011;29713;-33.888;151.150;2023-05-07T11:47:11;0.10;;;0.10;;
44046;SDS011;29713;-33.888;151.150;2023-05-07T11:49:53;0.20;;;0.10;;
44046;SDS011;29713;-33.888;151.150;2023-05-07T11:52:21;0.10;;;0.10;;
44046;SDS011;29713;-33.888;151.150;2023-05-07T11:54:56;0.10;;;0.10;;
44046;SDS011;29713;-33.888;151.150;2023-05-07T11:57:25;0.10;;;0.10;;
44046;SDS011;29713;-33.888;151.150;2023-05-07T11:59:54;0.30;;;0.10;;
44046;SDS011;29713;-33.888;151.150;2023-05-07T12:02:27;1.10;;;0.43;;
44046;SDS011;29713;-33.888;151.150;2023-05-07T12:04:55;0.93;;;0.20;;
44046;SDS011;29713;-33.888;151.150;2023-05-07T12:07:23;0.93;;;0.40;;
44046;SDS011;29713;-33.888;151.150;2023-05-07T12:09:53;0.63;;;0.30;;
44046;SDS011;29713;-33.888;151.150;2023-05-07T12:12:21;2.13;;;0.30;;
44046;SDS011;29713;-33.888;151.150;2023-05-07T12:14:52;0.70;;;0.37;;
44046;SDS011;29713;-33.888;151.150;2023-05-07T12:17:19;2.03;;;0.30;;
44046;SDS011;29713;-33.888;151.150;2023-05-07T12:19:47;0.17;;;0.13;;
44046;SDS011;29713;-33.888;151.150;2023-05-07T12:22:14;0.50;;;0.30;;
44046;SDS011;29713;-33.888;151.150;2023-05-07T12:27:13;1.40;;;0.20;;
44046;SDS011;29713;-33.888;151.150;2023-05-07T12:29:47;0.47;;;0.33;;
44046;SDS011;29713;-33.888;151.150;2023-05-07T12:32:16;0.60;;;0.20;;
44046;SDS011;29713;-33.888;151.150;2023-05-07T12:34:46;1.60;;;0.33;;
44046;SDS011;29713;-33.888;151.150;2023-05-07T12:37:16;1.03;;;0.40;;
44046;SDS011;29713;-33.888;151.150;2023-05-07T12:39:49;1.90;;;0.40;;
44046;SDS011;29713;-33.888;151.150;2023-05-07T12:42:37;0.70;;;0.40;;
44046;SDS011;29713;-33.888;151.150;2023-05-07T12:45:12;1.20;;;0.20;;
44046;SDS011;29713;-33.888;151.150;2023-05-07T12:47:43;0.70;;;0.37;;
44046;SDS011;29713;-33.888;151.150;2023-05-07T12:50:11;0.50;;;0.30;;
44046;SDS011;29713;-33.888;151.150;2023-05-07T12:52:45;0.30;;;0.23;;
44046;SDS011;29713;-33.888;151.150;2023-05-07T12:55:14;1.80;;;0.40;;
44046;SDS011;29713;-33.888;151.150;2023-05-07T12:57:43;0.37;;;0.30;;
44046;SDS011;29713;-33.888;151.150;2023-05-07T13:00:14;0.33;;;0.20;;
44046;SDS011;29713;-33.888;151.150;2023-05-07T13:02:42;0.30;;;0.30;;
44046;SDS011;29713;-33.888;151.150;2023-05-07T13:05:10;0.77;;;0.30;;
44046;SDS011;29713;-33.888;151.150;2023-05-07T13:07:38;1.53;;;0.47;;
44046;SDS011;29713;-33.888;151.150;2023-05-07T13:10:06;2.17;;;0.60;;
44046;SDS011;29713;-33.888;151.150;2023-05-07T13:12:34;1.27;;;0.40;;
44046;SDS011;29713;-33.888;151.150;2023-05-07T13:15:01;1.23;;;0.40;;
44046;SDS011;29713;-33.888;151.150;2023-05-07T13:17:28;0.67;;;0.50;;
44046;SDS011;29713;-33.888;151.150;2023-05-07T13:19:56;0.50;;;0.30;;
44046;SDS011;29713;-33.888;151.150;2023-05-07T13:22:24;0.60;;;0.30;;
44046;SDS011;29713;-33.888;151.150;2023-05-07T13:24:54;0.40;;;0.23;;
44046;SDS011;29713;-33.888;151.150;2023-05-07T13:27:21;1.27;;;0.40;;
44046;SDS011;29713;-33.888;151.150;2023-05-07T13:29:49;0.30;;;0.30;;
44046;SDS011;29713;-33.888;151.150;2023-05-07T13:32:16;0.60;;;0.50;;
44046;SDS011;29713;-33.888;151.150;2023-05-07T13:34:43;4.30;;;0.40;;
44046;SDS011;29713;-33.888;151.150;2023-05-07T13:37:11;0.23;;;0.23;;
44046;SDS011;29713;-33.888;151.150;2023-05-07T13:39:38;0.97;;;0.40;;
44046;SDS011;29713;-33.888;151.150;2023-05-07T13:42:06;0.33;;;0.30;;
44046;SDS011;29713;-33.888;151.150;2023-05-07T13:44:34;0.40;;;0.40;;
44046;SDS011;29713;-33.888;151.150;2023-05-07T13:47:01;0.40;;;0.30;;
44046;SDS011;29713;-33.888;151.150;2023-05-07T13:49:28;0.47;;;0.33;;
44046;SDS011;29713;-33.888;151.150;2023-05-07T13:51:56;2.60;;;0.50;;
44046;SDS011;29713;-33.888;151.150;2023-05-07T13:54:26;0.77;;;0.33;;
44046;SDS011;29713;-33.888;151.150;2023-05-07T13:56:53;0.30;;;0.30;;
44046;SDS011;29713;-33.888;151.150;2023-05-07T13:59:21;0.40;;;0.30;;
44046;SDS011;29713;-33.888;151.150;2023-05-07T14:01:48;0.33;;;0.27;;
44046;SDS011;29713;-33.888;151.150;2023-05-07T14:04:15;1.37;;;0.60;;
44046;SDS011;29713;-33.888;151.150;2023-05-07T14:06:42;1.53;;;0.30;;
44046;SDS011;29713;-33.888;151.150;2023-05-07T14:09:10;0.80;;;0.30;;
44046;SDS011;29713;-33.888;151.150;2023-05-07T14:11:38;0.20;;;0.20;;
44046;SDS011;29713;-33.888;151.150;2023-05-07T14:14:07;0.40;;;0.33;;
44046;SDS011;29713;-33.888;151.150;2023-05-07T14:16:37;0.53;;;0.40;;
44046;SDS011;29713;-33.888;151.150;2023-05-07T14:19:04;0.47;;;0.37;;
44046;SDS011;29713;-33.888;151.150;2023-05-07T14:21:32;1.60;;;0.20;;
44046;SDS011;29713;-33.888;151.150;2023-05-07T14:23:59;0.23;;;0.20;;